sensor_id;sensor_type;location;lat;lon;timestamp;pressure;altitude;pressure_sealevel;temperature;humidity
54270;BME280;40181;51.560;13.000;2023-02-04T00:01:47;101297.72;;;3.17;92.34
54270;BME280;40181;51.560;13.000;2023-02-04T00:04:16;101295.94;;;3.16;92.22
54270;BME280;40181;51.560;13.000;2023-02-04T00:06:45;101307.78;;;2.96;93.15
54270;BME280;40181;51.560;13.000;2023-02-04T00:09:14;101318.94;;;3.10;93.30
54270;BME280;40181;51.560;13.000;2023-02-04T00:11:43;101324.84;;;3.08;92.90
54270;BME280;40181;51.560;13.000;2023-02-04T00:14:15;101323.63;;;3.01;92.86
54270;BME280;40181;51.560;13.000;2023-02-04T00:16:44;101337.41;;;3.00;92.89
54270;BME280;40181;51.560;13.000;2023-02-04T00:19:13;101337.75;;;3.06;92.91
54270;BME280;40181;51.560;13.000;2023-02-04T00:21:42;101373.91;;;3.03;92.70
54270;BME280;40181;51.560;13.000;2023-02-04T00:24:11;101371.16;;;3.00;92.16
54270;BME280;40181;51.560;13.000;2023-02-04T00:26:40;101371.97;;;2.84;92.44
54270;BME280;40181;51.560;13.000;2023-02-04T00:29:09;101377.19;;;2.84;92.51
54270;BME280;40181;51.560;13.000;2023-02-04T00:31:41;101384.06;;;2.83;92.57
54270;BME280;40181;51.560;13.000;2023-02-04T00:34:10;101384.88;;;2.82;92.68
54270;BME280;40181;51.560;13.000;2023-02-04T00:36:39;101395.56;;;2.73;92.54
54270;BME280;40181;51.560;13.000;2023-02-04T00:39:08;101393.25;;;2.78;92.55
54270;BME280;40181;51.560;13.000;2023-02-04T00:41:37;101410.38;;;2.89;92.39
54270;BME280;40181;51.560;13.000;2023-02-04T00:44:06;101410.38;;;2.89;91.53
54270;BME280;40181;51.560;13.000;2023-02-04T00:46:35;101419.69;;;2.86;92.49
54270;BME280;40181;51.560;13.000;2023-02-04T00:49:07;101431.94;;;2.88;92.44
54270;BME280;40181;51.560;13.000;2023-02-04T00:51:37;101450.00;;;2.87;92.80
54270;BME280;40181;51.560;13.000;2023-02-04T00:54:10;101453.91;;;2.65;93.75
54270;BME280;40181;51.560;13.000;2023-02-04T00:56:41;101457.63;;;2.84;92.89
54270;BME280;40181;51.560;13.000;2023-02-04T00:59:10;101478.28;;;2.82;93.58
54270;BME280;40181;51.560;13.000;2023-02-04T01:01:40;101484.34;;;2.83;93.82
54270;BME280;40181;51.560;13.000;2023-02-04T01:04:11;101495.19;;;2.75;93.68
54270;BME280;40181;51.560;13.000;2023-02-04T01:06:41;101507.72;;;2.83;93.18
54270;BME280;40181;51.560;13.000;2023-02-04T01:09:10;101512.13;;;2.55;93.62
54270;BME280;40181;51.560;13.000;2023-02-04T01:11:39;101509.72;;;2.58;93.90
54270;BME280;40181;51.560;13.000;2023-02-04T01:14:08;101513.16;;;2.72;93.29
54270;BME280;40181;51.560;13.000;2023-02-04T01:16:37;101529.44;;;2.70;92.49
54270;BME280;40181;51.560;13.000;2023-02-04T01:19:07;101533.13;;;2.45;92.82
54270;BME280;40181;51.560;13.000;2023-02-04T01:21:38;101542.19;;;2.52;92.99
54270;BME280;40181;51.560;13.000;2023-02-04T01:24:08;101535.47;;;2.55;92.72
54270;BME280;40181;51.560;13.000;2023-02-04T01:34:09;101573.41;;;2.53;91.59
54270;BME280;40181;51.560;13.000;2023-02-04T01:36:41;101578.31;;;2.48;91.94
54270;BME280;40181;51.560;13.000;2023-02-04T01:39:10;101587.66;;;2.46;92.06
54270;BME280;40181;51.560;13.000;2023-02-04T01:41:40;101588.88;;;2.52;92.10
54270;BME280;40181;51.560;13.000;2023-02-04T01:44:09;101594.06;;;2.52;92.35
54270;BME280;40181;51.560;13.000;2023-02-04T01:46:38;101604.72;;;2.43;93.26
54270;BME280;40181;51.560;13.000;2023-02-04T01:49:09;101616.41;;;2.36;93.27
54270;BME280;40181;51.560;13.000;2023-02-04T01:51:41;101622.69;;;2.40;93.60
54270;BME280;40181;51.560;13.000;2023-02-04T01:54:11;101638.94;;;2.37;93.22
54270;BME280;40181;51.560;13.000;2023-02-04T01:56:44;101650.94;;;2.48;93.37
54270;BME280;40181;51.560;13.000;2023-02-04T01:59:16;101661.97;;;2.59;92.70
54270;BME280;40181;51.560;13.000;2023-02-04T02:01:46;101672.97;;;2.42;93.65
54270;BME280;40181;51.560;13.000;2023-02-04T02:04:19;101685.34;;;2.32;94.14
54270;BME280;40181;51.560;13.000;2023-02-04T02:07:01;101674.75;;;2.43;95.27
54270;BME280;40181;51.560;13.000;2023-02-04T02:09:34;101675.38;;;2.39;95.35
54270;BME280;40181;51.560;13.000;2023-02-04T02:12:03;101688.63;;;2.43;95.39
54270;BME280;40181;51.560;13.000;2023-02-04T02:14:33;101705.28;;;2.33;95.03
54270;BME280;40181;51.560;13.000;2023-02-04T02:17:02;101706.09;;;2.32;94.64
54270;BME280;40181;51.560;13.000;2023-02-04T02:19:35;101722.56;;;2.33;94.66
54270;BME280;40181;51.560;13.000;2023-02-04T02:22:12;101737.81;;;2.42;93.58
54270;BME280;40181;51.560;13.000;2023-02-04T02:24:46;101734.59;;;2.32;93.47
54270;BME280;40181;51.560;13.000;2023-02-04T02:27:15;101742.69;;;2.37;93.13
54270;BME280;40181;51.560;13.000;2023-02-04T02:29:44;101760.56;;;2.46;92.55
54270;BME280;40181;51.560;13.000;2023-02-04T02:32:14;101762.03;;;2.29;93.39
54270;BME280;40181;51.560;13.000;2023-02-04T02:34:44;101777.50;;;2.27;93.76
54270;BME280;40181;51.560;13.000;2023-02-04T02:37:14;101786.81;;;1.98;96.46
54270;BME280;40181;51.560;13.000;2023-02-04T02:39:46;101795.97;;;2.06;97.74
54270;BME280;40181;51.560;13.000;2023-02-04T02:42:16;101807.56;;;1.98;98.58
54270;BME280;40181;51.560;13.000;2023-02-04T02:44:47;101818.94;;;2.14;98.42
54270;BME280;40181;51.560;13.000;2023-02-04T02:47:20;101824.78;;;1.98;99.19
54270;BME280;40181;51.560;13.000;2023-02-04T02:49:51;101832.28;;;2.06;98.94
54270;BME280;40181;51.560;13.000;2023-02-04T02:52:21;101847.75;;;2.05;98.54
54270;BME280;40181;51.560;13.000;2023-02-04T02:54:52;101853.59;;;2.02;98.30
54270;BME280;40181;51.560;13.000;2023-02-04T02:57:22;101858.13;;;2.05;98.51
54270;BME280;40181;51.560;13.000;2023-02-04T02:59:51;101861.59;;;2.05;98.19
54270;BME280;40181;51.560;13.000;2023-02-04T03:02:22;101878.06;;;2.06;96.68
54270;BME280;40181;51.560;13.000;2023-02-04T03:04:54;101877.75;;;2.01;96.60
54270;BME280;40181;51.560;13.000;2023-02-04T03:07:26;101890.38;;;1.97;95.29
54270;BME280;40181;51.560;13.000;2023-02-04T03:09:58;101896.25;;;1.82;95.09
54270;BME280;40181;51.560;13.000;2023-02-04T03:12:34;101909.00;;;1.91;94.88
54270;BME280;40181;51.560;13.000;2023-02-04T03:15:04;101909.41;;;1.97;94.36
54270;BME280;40181;51.560;13.000;2023-02-04T03:17:34;101928.09;;;2.05;93.77
54270;BME280;40181;51.560;13.000;2023-02-04T03:20:04;101929.38;;;1.98;92.92
54270;BME280;40181;51.560;13.000;2023-02-04T03:22:34;101939.28;;;1.92;93.35
54270;BME280;40181;51.560;13.000;2023-02-04T03:25:06;101944.94;;;1.98;92.84
54270;BME280;40181;51.560;13.000;2023-02-04T03:27:36;101958.03;;;1.76;92.42
54270;BME280;40181;51.560;13.000;2023-02-04T03:30:07;101949.19;;;1.98;91.92
54270;BME280;40181;51.560;13.000;2023-02-04T03:32:36;101967.53;;;2.01;91.84
54270;BME280;40181;51.560;13.000;2023-02-04T03:35:06;101980.75;;;1.92;91.63
54270;BME280;40181;51.560;13.000;2023-02-04T03:37:35;101986.28;;;1.85;91.83
54270;BME280;40181;51.560;13.000;2023-02-04T03:40:08;101988.53;;;1.92;91.51
54270;BME280;40181;51.560;13.000;2023-02-04T03:42:38;102005.69;;;1.66;91.93
54270;BME280;40181;51.560;13.000;2023-02-04T03:45:07;102009.34;;;2.05;91.12
54270;BME280;40181;51.560;13.000;2023-02-04T03:47:37;102006.53;;;2.02;91.29
54270;BME280;40181;51.560;13.000;2023-02-04T03:50:06;102028.22;;;1.91;91.44
54270;BME280;40181;51.560;13.000;2023-02-04T03:52:37;102031.94;;;1.95;91.19
54270;BME280;40181;51.560;13.000;2023-02-04T03:55:09;102030.66;;;2.01;91.64
54270;BME280;40181;51.560;13.000;2023-02-04T03:57:38;102031.13;;;1.72;92.10
54270;BME280;40181;51.560;13.000;2023-02-04T04:00:08;102034.41;;;1.81;92.48
54270;BME280;40181;51.560;13.000;2023-02-04T04:02:38;102033.59;;;1.82;92.37
54270;BME280;40181;51.560;13.000;2023-02-04T04:05:08;102050.53;;;1.65;92.31
54270;BME280;40181;51.560;13.000;2023-02-04T04:07:37;102058.63;;;1.58;93.34
54270;BME280;40181;51.560;13.000;2023-02-04T04:10:09;102063.94;;;1.71;93.08
54270;BME280;40181;51.560;13.000;2023-02-04T04:12:38;102071.34;;;1.66;92.79
54270;BME280;40181;51.560;13.000;2023-02-04T04:15:08;102076.75;;;1.58;93.15
54270;BME280;40181;51.560;13.000;2023-02-04T04:17:37;102077.44;;;1.67;92.89
54270;BME280;40181;51.560;13.000;2023-02-04T04:20:07;102081.34;;;1.38;93.34
54270;BME280;40181;51.560;13.000;2023-02-04T04:22:37;102099.75;;;1.19;93.63
54270;BME280;40181;51.560;13.000;2023-02-04T04:25:09;102101.06;;;1.36;93.79
54270;BME280;40181;51.560;13.000;2023-02-04T04:27:38;102120.19;;;1.38;94.11
54270;BME280;40181;51.560;13.000;2023-02-04T04:30:08;102129.00;;;1.52;92.91
54270;BME280;40181;51.560;13.000;2023-02-04T04:32:38;102127.06;;;1.49;92.75
54270;BME280;40181;51.560;13.000;2023-02-04T04:35:08;102132.56;;;1.42;92.55
54270;BME280;40181;51.560;13.000;2023-02-04T04:37:37;102140.44;;;1.32;93.46
54270;BME280;40181;51.560;13.000;2023-02-04T04:40:10;102143.19;;;1.45;93.26
54270;BME280;40181;51.560;13.000;2023-02-04T04:42:39;102150.38;;;1.49;92.33
54270;BME280;40181;51.560;13.000;2023-02-04T04:45:09;102152.88;;;1.60;92.12
54270;BME280;40181;51.560;13.000;2023-02-04T04:47:39;102166.81;;;1.38;93.03
54270;BME280;40181;51.560;13.000;2023-02-04T04:50:08;102175.16;;;1.46;93.01
54270;BME280;40181;51.560;13.000;2023-02-04T04:52:37;102182.66;;;1.31;93.27
54270;BME280;40181;51.560;13.000;2023-02-04T04:55:10;102198.31;;;1.32;93.88
54270;BME280;40181;51.560;13.000;2023-02-04T04:57:39;102198.97;;;1.30;93.38
54270;BME280;40181;51.560;13.000;2023-02-04T05:00:14;102207.06;;;1.57;92.15
54270;BME280;40181;51.560;13.000;2023-02-04T05:02:44;102213.47;;;1.50;92.26
54270;BME280;40181;51.560;13.000;2023-02-04T05:05:13;102221.34;;;1.51;92.70
54270;BME280;40181;51.560;13.000;2023-02-04T05:07:42;102222.75;;;1.58;91.59
54270;BME280;40181;51.560;13.000;2023-02-04T05:10:14;102226.66;;;1.31;93.78
54270;BME280;40181;51.560;13.000;2023-02-04T05:12:44;102237.66;;;1.50;92.80
54270;BME280;40181;51.560;13.000;2023-02-04T05:15:13;102234.78;;;1.58;92.44
54270;BME280;40181;51.560;13.000;2023-02-04T05:17:42;102242.25;;;1.43;93.26
54270;BME280;40181;51.560;13.000;2023-02-04T05:20:11;102251.69;;;1.20;92.73
54270;BME280;40181;51.560;13.000;2023-02-04T05:22:40;102247.16;;;1.28;92.87
54270;BME280;40181;51.560;13.000;2023-02-04T05:25:14;102248.03;;;1.28;93.49
54270;BME280;40181;51.560;13.000;2023-02-04T05:27:43;102248.03;;;1.28;92.95
54270;BME280;40181;51.560;13.000;2023-02-04T05:30:13;102259.81;;;1.02;94.37
54270;BME280;40181;51.560;13.000;2023-02-04T05:32:43;102251.19;;;1.24;93.77
54270;BME280;40181;51.560;13.000;2023-02-04T05:35:12;102260.53;;;1.12;93.63
54270;BME280;40181;51.560;13.000;2023-02-04T05:37:41;102273.19;;;1.19;93.62
54270;BME280;40181;51.560;13.000;2023-02-04T05:40:11;102269.09;;;1.10;94.17
54270;BME280;40181;51.560;13.000;2023-02-04T05:42:42;102273.34;;;1.20;94.09
54270;BME280;40181;51.560;13.000;2023-02-04T05:45:13;102279.41;;;1.21;93.06
54270;BME280;40181;51.560;13.000;2023-02-04T05:47:43;102296.69;;;1.10;93.02
54270;BME280;40181;51.560;13.000;2023-02-04T05:50:12;102305.56;;;1.24;92.76
54270;BME280;40181;51.560;13.000;2023-02-04T05:52:42;102310.44;;;1.31;92.42
54270;BME280;40181;51.560;13.000;2023-02-04T05:55:14;102327.28;;;0.93;93.26
54270;BME280;40181;51.560;13.000;2023-02-04T05:57:43;102332.28;;;1.02;93.59
54270;BME280;40181;51.560;13.000;2023-02-04T06:00:13;102343.31;;;1.00;93.72
54270;BME280;40181;51.560;13.000;2023-02-04T06:02:42;102362.56;;;1.14;92.99
54270;BME280;40181;51.560;13.000;2023-02-04T06:05:11;102361.06;;;0.95;93.98
54270;BME280;40181;51.560;13.000;2023-02-04T06:07:40;102357.41;;;0.93;94.38
54270;BME280;40181;51.560;13.000;2023-02-04T06:10:10;102372.81;;;1.02;94.07
54270;BME280;40181;51.560;13.000;2023-02-04T06:12:42;102374.38;;;0.89;94.53
54270;BME280;40181;51.560;13.000;2023-02-04T06:15:11;102380.13;;;0.64;95.18
54270;BME280;40181;51.560;13.000;2023-02-04T06:17:40;102381.66;;;0.62;95.46
54270;BME280;40181;51.560;13.000;2023-02-04T06:20:12;102378.16;;;0.82;95.24
54270;BME280;40181;51.560;13.000;2023-02-04T06:22:42;102382.13;;;0.89;94.84
54270;BME280;40181;51.560;13.000;2023-02-04T06:25:14;102382.28;;;0.91;94.83
54270;BME280;40181;51.560;13.000;2023-02-04T06:27:43;102384.88;;;0.91;94.99
54270;BME280;40181;51.560;13.000;2023-02-04T06:30:13;102383.97;;;0.90;95.01
54270;BME280;40181;51.560;13.000;2023-02-04T06:32:42;102397.03;;;0.81;95.52
54270;BME280;40181;51.560;13.000;2023-02-04T06:35:12;102392.78;;;0.82;95.21
54270;BME280;40181;51.560;13.000;2023-02-04T06:37:41;102400.91;;;0.97;94.88
54270;BME280;40181;51.560;13.000;2023-02-04T06:40:14;102399.75;;;0.83;94.91
54270;BME280;40181;51.560;13.000;2023-02-04T06:42:43;102408.00;;;0.89;94.94
54270;BME280;40181;51.560;13.000;2023-02-04T06:45:12;102415.81;;;0.68;95.39
54270;BME280;40181;51.560;13.000;2023-02-04T06:47:41;102419.53;;;0.82;95.03
54270;BME280;40181;51.560;13.000;2023-02-04T06:50:10;102421.25;;;0.82;95.30
54270;BME280;40181;51.560;13.000;2023-02-04T06:52:43;102416.59;;;0.67;95.73
54270;BME280;40181;51.560;13.000;2023-02-04T06:55:16;102425.66;;;0.73;95.50
54270;BME280;40181;51.560;13.000;2023-02-04T06:57:45;102422.13;;;0.82;94.99
54270;BME280;40181;51.560;13.000;2023-02-04T07:00:14;102421.75;;;0.78;95.42
54270;BME280;40181;51.560;13.000;2023-02-04T07:02:43;102430.69;;;0.71;95.57
54270;BME280;40181;51.560;13.000;2023-02-04T07:05:13;102433.13;;;0.69;95.89
54270;BME280;40181;51.560;13.000;2023-02-04T07:07:42;102434.56;;;0.55;95.92
54270;BME280;40181;51.560;13.000;2023-02-04T07:10:11;102437.41;;;0.48;96.64
54270;BME280;40181;51.560;13.000;2023-02-04T07:12:43;102446.84;;;0.58;96.62
54270;BME280;40181;51.560;13.000;2023-02-04T07:15:12;102436.38;;;0.46;96.85
54270;BME280;40181;51.560;13.000;2023-02-04T07:17:41;102449.69;;;0.40;97.56
54270;BME280;40181;51.560;13.000;2023-02-04T07:20:11;102455.16;;;0.64;96.84
54270;BME280;40181;51.560;13.000;2023-02-04T07:22:40;102453.06;;;0.60;97.29
54270;BME280;40181;51.560;13.000;2023-02-04T07:25:09;102456.03;;;0.54;97.27
54270;BME280;40181;51.560;13.000;2023-02-04T07:27:39;102452.16;;;0.60;96.96
54270;BME280;40181;51.560;13.000;2023-02-04T07:30:11;102457.34;;;0.60;96.90
54270;BME280;40181;51.560;13.000;2023-02-04T07:32:41;102465.09;;;0.60;96.79
54270;BME280;40181;51.560;13.000;2023-02-04T07:35:10;102474.41;;;0.78;96.84
54270;BME280;40181;51.560;13.000;2023-02-04T07:37:39;102481.13;;;0.66;97.19
54270;BME280;40181;51.560;13.000;2023-02-04T07:40:10;102481.50;;;0.60;97.16
54270;BME280;40181;51.560;13.000;2023-02-04T07:42:39;102491.84;;;0.81;96.72
54270;BME280;40181;51.560;13.000;2023-02-04T07:45:11;102491.38;;;0.75;96.74
54270;BME280;40181;51.560;13.000;2023-02-04T07:47:40;102496.94;;;0.79;97.41
54270;BME280;40181;51.560;13.000;2023-02-04T07:50:09;102495.63;;;0.74;97.80
54270;BME280;40181;51.560;13.000;2023-02-04T07:52:38;102509.47;;;0.85;97.46
54270;BME280;40181;51.560;13.000;2023-02-04T07:55:08;102503.00;;;0.69;97.59
54270;BME280;40181;51.560;13.000;2023-02-04T07:57:37;102503.75;;;0.89;98.00
54270;BME280;40181;51.560;13.000;2023-02-04T08:00:10;102515.56;;;0.96;97.76
54270;BME280;40181;51.560;13.000;2023-02-04T08:02:41;102514.25;;;0.80;98.33
54270;BME280;40181;51.560;13.000;2023-02-04T08:05:10;102522.66;;;0.88;98.13
54270;BME280;40181;51.560;13.000;2023-02-04T08:07:39;102528.50;;;0.86;98.22
54270;BME280;40181;51.560;13.000;2023-02-04T08:10:09;102539.88;;;0.88;98.14
54270;BME280;40181;51.560;13.000;2023-02-04T08:12:38;102529.38;;;0.76;98.80
54270;BME280;40181;51.560;13.000;2023-02-04T08:15:10;102541.06;;;0.91;98.44
54270;BME280;40181;51.560;13.000;2023-02-04T08:17:39;102538.31;;;1.00;98.55
54270;BME280;40181;51.560;13.000;2023-02-04T08:20:10;102549.31;;;0.98;98.17
54270;BME280;40181;51.560;13.000;2023-02-04T08:22:40;102563.81;;;0.85;98.28
54270;BME280;40181;51.560;13.000;2023-02-04T08:25:10;102562.16;;;0.96;98.17
54270;BME280;40181;51.560;13.000;2023-02-04T08:27:39;102572.59;;;0.87;98.92
54270;BME280;40181;51.560;13.000;2023-02-04T08:30:11;102587.50;;;0.90;98.76
54270;BME280;40181;51.560;13.000;2023-02-04T08:32:40;102573.13;;;0.83;98.59
54270;BME280;40181;51.560;13.000;2023-02-04T08:35:10;102581.78;;;0.73;99.02
54270;BME280;40181;51.560;13.000;2023-02-04T08:37:39;102586.72;;;0.80;99.32
54270;BME280;40181;51.560;13.000;2023-02-04T08:40:10;102597.22;;;0.92;99.25
54270;BME280;40181;51.560;13.000;2023-02-04T08:42:39;102593.59;;;1.11;98.72
54270;BME280;40181;51.560;13.000;2023-02-04T08:45:11;102593.75;;;1.13;98.78
54270;BME280;40181;51.560;13.000;2023-02-04T08:47:40;102607.19;;;0.98;99.09
54270;BME280;40181;51.560;13.000;2023-02-04T08:50:09;102603.44;;;1.15;98.94
54270;BME280;40181;51.560;13.000;2023-02-04T08:52:39;102610.16;;;1.13;98.26
54270;BME280;40181;51.560;13.000;2023-02-04T08:55:08;102605.22;;;1.16;98.83
54270;BME280;40181;51.560;13.000;2023-02-04T08:57:37;102602.41;;;1.13;98.95
54270;BME280;40181;51.560;13.000;2023-02-04T09:00:12;102616.13;;;1.02;98.70
54270;BME280;40181;51.560;13.000;2023-02-04T09:02:42;102619.75;;;1.24;98.39
54270;BME280;40181;51.560;13.000;2023-02-04T09:05:11;102621.31;;;1.22;98.16
54270;BME280;40181;51.560;13.000;2023-02-04T09:07:41;102621.69;;;1.27;98.10
54270;BME280;40181;51.560;13.000;2023-02-04T09:10:10;102620.41;;;1.43;97.55
54270;BME280;40181;51.560;13.000;2023-02-04T09:12:39;102628.94;;;1.52;97.21
54270;BME280;40181;51.560;13.000;2023-02-04T09:15:09;102633.88;;;1.59;97.21
54270;BME280;40181;51.560;13.000;2023-02-04T09:17:41;102636.84;;;1.43;97.02
54270;BME280;40181;51.560;13.000;2023-02-04T09:20:10;102636.97;;;1.34;97.02
54270;BME280;40181;51.560;13.000;2023-02-04T09:22:40;102648.38;;;1.36;97.70
54270;BME280;40181;51.560;13.000;2023-02-04T09:25:09;102642.94;;;1.44;97.55
54270;BME280;40181;51.560;13.000;2023-02-04T09:27:38;102654.22;;;1.44;97.32
54270;BME280;40181;51.560;13.000;2023-02-04T09:30:08;102655.59;;;1.30;97.26
54270;BME280;40181;51.560;13.000;2023-02-04T09:32:40;102652.66;;;1.57;97.08
54270;BME280;40181;51.560;13.000;2023-02-04T09:35:09;102654.72;;;1.71;96.82
54270;BME280;40181;51.560;13.000;2023-02-04T09:37:38;102662.88;;;1.55;97.25
54270;BME280;40181;51.560;13.000;2023-02-04T09:40:12;102660.81;;;1.51;96.05
54270;BME280;40181;51.560;13.000;2023-02-04T09:42:42;102688.13;;;1.47;95.97
54270;BME280;40181;51.560;13.000;2023-02-04T09:45:16;102674.00;;;1.64;96.41
54270;BME280;40181;51.560;13.000;2023-02-04T09:47:50;102674.94;;;1.65;96.05
54270;BME280;40181;51.560;13.000;2023-02-04T09:50:21;102680.25;;;1.77;95.47
54270;BME280;40181;51.560;13.000;2023-02-04T09:52:54;102684.00;;;1.81;95.79
54270;BME280;40181;51.560;13.000;2023-02-04T09:55:28;102687.22;;;1.88;95.08
54270;BME280;40181;51.560;13.000;2023-02-04T09:58:00;102687.34;;;2.00;94.72
54270;BME280;40181;51.560;13.000;2023-02-04T10:00:30;102675.41;;;1.92;95.21
54270;BME280;40181;51.560;13.000;2023-02-04T10:03:01;102682.03;;;1.88;94.40
54270;BME280;40181;51.560;13.000;2023-02-04T10:05:32;102682.66;;;1.96;94.33
54270;BME280;40181;51.560;13.000;2023-02-04T10:08:03;102685.53;;;1.99;94.28
54270;BME280;40181;51.560;13.000;2023-02-04T10:10:32;102692.50;;;2.11;93.87
54270;BME280;40181;51.560;13.000;2023-02-04T10:13:01;102690.31;;;1.95;93.02
54270;BME280;40181;51.560;13.000;2023-02-04T10:15:33;102694.81;;;2.18;93.03
54270;BME280;40181;51.560;13.000;2023-02-04T10:18:05;102696.13;;;2.02;92.00
54270;BME280;40181;51.560;13.000;2023-02-04T10:20:36;102699.56;;;2.34;91.61
54270;BME280;40181;51.560;13.000;2023-02-04T10:23:09;102693.38;;;2.21;91.50
54270;BME280;40181;51.560;13.000;2023-02-04T10:25:40;102696.88;;;2.22;91.63
54270;BME280;40181;51.560;13.000;2023-02-04T10:28:09;102691.13;;;2.37;90.99
54270;BME280;40181;51.560;13.000;2023-02-04T10:30:40;102698.91;;;2.37;90.78
54270;BME280;40181;51.560;13.000;2023-02-04T10:33:15;102687.00;;;2.61;90.59
54270;BME280;40181;51.560;13.000;2023-02-04T10:35:52;102689.44;;;2.70;89.63
54270;BME280;40181;51.560;13.000;2023-02-04T10:38:23;102689.56;;;2.71;89.62
54270;BME280;40181;51.560;13.000;2023-02-04T10:41:00;102692.72;;;2.89;90.65
54270;BME280;40181;51.560;13.000;2023-02-04T10:43:30;102692.38;;;2.74;88.47
54270;BME280;40181;51.560;13.000;2023-02-04T10:46:01;102692.59;;;2.88;87.80
54270;BME280;40181;51.560;13.000;2023-02-04T10:48:41;102694.63;;;2.92;86.96
54270;BME280;40181;51.560;13.000;2023-02-04T10:51:12;102705.28;;;2.95;86.15
54270;BME280;40181;51.560;13.000;2023-02-04T10:53:41;102703.47;;;2.94;85.66
54270;BME280;40181;51.560;13.000;2023-02-04T10:56:22;102711.00;;;2.91;86.21
54270;BME280;40181;51.560;13.000;2023-02-04T10:58:51;102708.00;;;2.97;85.96
54270;BME280;40181;51.560;13.000;2023-02-04T11:01:20;102699.72;;;2.90;85.27
54270;BME280;40181;51.560;13.000;2023-02-04T11:03:52;102713.78;;;2.82;85.14
54270;BME280;40181;51.560;13.000;2023-02-04T11:06:23;102706.13;;;2.84;85.72
54270;BME280;40181;51.560;13.000;2023-02-04T11:08:53;102710.28;;;3.04;83.24
54270;BME280;40181;51.560;13.000;2023-02-04T11:11:24;102701.47;;;3.02;82.13
54270;BME280;40181;51.560;13.000;2023-02-04T11:13:59;102705.34;;;3.07;81.90
54270;BME280;40181;51.560;13.000;2023-02-04T11:16:30;102710.53;;;2.85;82.93
54270;BME280;40181;51.560;13.000;2023-02-04T11:19:04;102708.00;;;2.97;83.20
54270;BME280;40181;51.560;13.000;2023-02-04T11:21:43;102717.00;;;3.12;83.66
54270;BME280;40181;51.560;13.000;2023-02-04T11:24:23;102710.72;;;3.21;80.77
54270;BME280;40181;51.560;13.000;2023-02-04T11:27:05;102710.56;;;3.41;79.37
54270;BME280;40181;51.560;13.000;2023-02-04T11:29:44;102712.06;;;3.50;78.25
54270;BME280;40181;51.560;13.000;2023-02-04T11:32:30;102717.81;;;3.80;77.66
54270;BME280;40181;51.560;13.000;2023-02-04T11:35:23;102728.16;;;3.56;75.50
54270;BME280;40181;51.560;13.000;2023-02-04T11:37:54;102723.31;;;3.60;76.40
54270;BME280;40181;51.560;13.000;2023-02-04T11:40:29;102721.88;;;3.42;75.68
54270;BME280;40181;51.560;13.000;2023-02-04T11:43:08;102732.50;;;3.45;77.71
54270;BME280;40181;51.560;13.000;2023-02-04T11:45:41;102728.72;;;3.29;77.89
54270;BME280;40181;51.560;13.000;2023-02-04T11:48:13;102733.28;;;3.44;77.81
54270;BME280;40181;51.560;13.000;2023-02-04T11:50:56;102727.22;;;3.43;76.82
54270;BME280;40181;51.560;13.000;2023-02-04T11:53:28;102732.41;;;3.43;73.37
54270;BME280;40181;51.560;13.000;2023-02-04T11:55:58;102727.94;;;3.30;73.19
54270;BME280;40181;51.560;13.000;2023-02-04T11:58:29;102727.75;;;3.73;71.28
54270;BME280;40181;51.560;13.000;2023-02-04T12:00:58;102723.94;;;3.92;71.06
54270;BME280;40181;51.560;13.000;2023-02-04T12:03:29;102727.22;;;3.90;71.61
54270;BME280;40181;51.560;13.000;2023-02-04T12:06:02;102733.38;;;4.02;70.79
54270;BME280;40181;51.560;13.000;2023-02-04T12:08:33;102736.53;;;4.22;68.81
54270;BME280;40181;51.560;13.000;2023-02-04T12:11:06;102734.25;;;4.62;67.77
54270;BME280;40181;51.560;13.000;2023-02-04T12:13:46;102737.00;;;4.76;63.99
54270;BME280;40181;51.560;13.000;2023-02-04T12:16:16;102735.91;;;4.97;64.17
54270;BME280;40181;51.560;13.000;2023-02-04T12:18:45;102727.56;;;4.78;64.04
54270;BME280;40181;51.560;13.000;2023-02-04T12:21:17;102733.63;;;5.02;62.47
54270;BME280;40181;51.560;13.000;2023-02-04T12:23:47;102735.50;;;4.91;64.11
54270;BME280;40181;51.560;13.000;2023-02-04T12:26:16;102741.13;;;4.85;65.41
54270;BME280;40181;51.560;13.000;2023-02-04T12:28:45;102732.78;;;4.78;65.76
54270;BME280;40181;51.560;13.000;2023-02-04T12:31:13;102738.09;;;4.91;65.57
54270;BME280;40181;51.560;13.000;2023-02-04T12:33:42;102740.59;;;4.66;64.79
54270;BME280;40181;51.560;13.000;2023-02-04T12:36:12;102726.91;;;4.45;65.89
54270;BME280;40181;51.560;13.000;2023-02-04T12:38:43;102742.88;;;4.49;66.73
54270;BME280;40181;51.560;13.000;2023-02-04T12:41:12;102734.38;;;4.40;67.25
54270;BME280;40181;51.560;13.000;2023-02-04T12:43:43;102738.03;;;4.42;67.53
54270;BME280;40181;51.560;13.000;2023-02-04T12:46:14;102755.22;;;4.16;67.47
54270;BME280;40181;51.560;13.000;2023-02-04T12:48:46;102741.19;;;4.74;66.88
54270;BME280;40181;51.560;13.000;2023-02-04T12:51:15;102738.03;;;5.03;66.85
54270;BME280;40181;51.560;13.000;2023-02-04T12:53:48;102739.09;;;5.05;63.49
54270;BME280;40181;51.560;13.000;2023-02-04T12:56:17;102728.97;;;5.47;63.11
54270;BME280;40181;51.560;13.000;2023-02-04T12:58:51;102721.59;;;5.67;63.15
54270;BME280;40181;51.560;13.000;2023-02-04T13:01:20;102744.56;;;5.59;61.82
54270;BME280;40181;51.560;13.000;2023-02-04T13:03:49;102739.63;;;5.89;63.23
54270;BME280;40181;51.560;13.000;2023-02-04T13:06:18;102741.44;;;5.39;63.02
54270;BME280;40181;51.560;13.000;2023-02-04T13:08:49;102743.16;;;5.39;62.95
54270;BME280;40181;51.560;13.000;2023-02-04T13:11:18;102748.25;;;5.00;64.22
54270;BME280;40181;51.560;13.000;2023-02-04T13:13:47;102744.25;;;5.17;64.44
54270;BME280;40181;51.560;13.000;2023-02-04T13:16:16;102749.22;;;5.26;63.74